createdAt,value
2018-02-21T00:00:20.777Z,1018.22
2018-02-21T00:01:30.240Z,1018.18
2018-02-21T00:02:40.189Z,1018.16
2018-02-21T00:03:49.890Z,1018.19
2018-02-21T00:04:59.060Z,1018.16
2018-02-21T00:06:09.023Z,1018.16
2018-02-21T00:07:18.987Z,1018.19
2018-02-21T00:08:28.668Z,1018.17
2018-02-21T00:09:38.370Z,1018.16
2018-02-21T00:10:48.084Z,1018.22
2018-02-21T00:11:58.037Z,1018.18
2018-02-21T00:13:07.475Z,1018.21
2018-02-21T00:14:17.170Z,1018.21
2018-02-21T00:15:27.130Z,1018.23
2018-02-21T00:16:36.844Z,1018.24
2018-02-21T00:17:46.813Z,1018.21
2018-02-21T00:18:56.781Z,1018.23
2018-02-21T00:20:05.436Z,1018.27
2018-02-21T00:21:15.399Z,1018.25
2018-02-21T00:22:25.369Z,1018.26
2018-02-21T00:23:35.070Z,1018.29
2018-02-21T00:24:45.025Z,1018.27
2018-02-21T00:25:54.724Z,1018.28
2018-02-21T00:27:04.418Z,1018.28
2018-02-21T00:28:14.369Z,1018.32
2018-02-21T00:29:24.331Z,1018.33
2018-02-21T00:30:34.277Z,1018.36
2018-02-21T00:31:44.250Z,1018.36
2018-02-21T00:32:53.945Z,1018.42
2018-02-21T00:34:03.645Z,1018.34
2018-02-21T00:35:13.345Z,1018.36
2018-02-21T00:36:23.299Z,1018.39
2018-02-21T00:37:32.736Z,1018.35
2018-02-21T00:38:42.436Z,1018.38
2018-02-21T00:39:52.604Z,1018.38
2018-02-21T00:41:01.778Z,1018.39
2018-02-21T00:42:11.218Z,1018.38
2018-02-21T00:43:20.909Z,1018.4
2018-02-21T00:44:30.890Z,1018.39
2018-02-21T00:45:40.855Z,1018.4
2018-02-21T00:46:50.552Z,1018.38
2018-02-21T00:48:00.527Z,1018.41
2018-02-21T00:49:10.235Z,1018.41
2018-02-21T00:50:19.928Z,1018.44
2018-02-21T00:51:29.617Z,1018.42
2018-02-21T00:52:39.408Z,1018.41
2018-02-21T00:53:49.105Z,1018.42
2018-02-21T00:54:58.804Z,1018.44
2018-02-21T00:56:08.503Z,1018.42
2018-02-21T00:57:18.460Z,1018.43
2018-02-21T00:58:28.411Z,1018.46
2018-02-21T00:59:38.369Z,1018.46
2018-02-21T01:00:47.807Z,1018.45
2018-02-21T01:01:57.763Z,1018.42
2018-02-21T01:03:07.467Z,1018.42
2018-02-21T01:04:17.166Z,1018.47
2018-02-21T01:05:26.619Z,1018.44
2018-02-21T01:06:36.320Z,1018.45
2018-02-21T01:07:46.019Z,1018.44
2018-02-21T01:08:55.454Z,1018.42
2018-02-21T01:10:05.151Z,1018.4
2018-02-21T01:11:14.590Z,1018.42
2018-02-21T01:12:24.302Z,1018.42
2018-02-21T01:13:34.253Z,1018.42
2018-02-21T01:14:44.228Z,1018.44
2018-02-21T01:15:53.686Z,1018.43
2018-02-21T01:17:03.644Z,1018.4
2018-02-21T01:18:13.342Z,1018.41
2018-02-21T01:19:23.039Z,1018.48
2018-02-21T01:20:33.009Z,1018.45
2018-02-21T01:21:42.949Z,1018.47
2018-02-21T01:22:52.902Z,1018.51
2018-02-21T01:24:02.606Z,1018.51
2018-02-21T01:25:12.578Z,1018.53
2018-02-21T01:26:22.280Z,1018.52
2018-02-21T01:27:31.979Z,1018.53
2018-02-21T01:28:41.406Z,1018.57
2018-02-21T01:29:51.103Z,1018.56
2018-02-21T01:31:00.804Z,1018.57
2018-02-21T01:32:10.493Z,1018.57
2018-02-21T01:33:20.450Z,1018.61
2018-02-21T01:34:29.885Z,1018.6
2018-02-21T01:35:39.840Z,1018.59
2018-02-21T01:36:49.538Z,1018.57
2018-02-21T01:37:59.488Z,1018.56
2018-02-21T01:39:09.447Z,1018.59
2018-02-21T01:40:19.405Z,1018.61
2018-02-21T01:41:29.355Z,1018.65
2018-02-21T01:42:39.314Z,1018.63
2018-02-21T01:43:49.271Z,1018.64
2018-02-21T01:44:59.226Z,1018.62
2018-02-21T01:46:08.946Z,1018.63
2018-02-21T01:47:18.900Z,1018.6
2018-02-21T01:48:28.590Z,1018.63
2018-02-21T01:49:38.290Z,1018.65
2018-02-21T01:50:48.244Z,1018.63
2018-02-21T01:51:57.678Z,1018.61
2018-02-21T01:53:07.665Z,1018.65
2018-02-21T01:54:17.357Z,1018.66
2018-02-21T01:55:27.309Z,1018.66
2018-02-21T01:56:37.274Z,1018.66
2018-02-21T01:57:46.451Z,1018.68
2018-02-21T01:58:56.141Z,1018.69
2018-02-21T02:00:05.853Z,1018.67
2018-02-21T02:01:15.553Z,1018.68
2018-02-21T02:02:25.241Z,1018.66
2018-02-21T02:03:34.673Z,1018.67
2018-02-21T02:04:44.371Z,1018.66
2018-02-21T02:05:54.061Z,1018.67
2018-02-21T02:07:04.014Z,1018.68
2018-02-21T02:08:13.962Z,1018.6
2018-02-21T02:09:23.923Z,1018.65
2018-02-21T02:10:34.123Z,1018.66
2018-02-21T02:11:44.083Z,1018.73
2018-02-21T02:12:53.769Z,1018.71
2018-02-21T02:14:03.728Z,1018.75
2018-02-21T02:15:13.674Z,1018.75
2018-02-21T02:16:23.360Z,1018.79
2018-02-21T02:17:33.303Z,1018.81
2018-02-21T02:18:42.999Z,1018.79
2018-02-21T02:19:52.689Z,1018.83
2018-02-21T02:21:02.121Z,1018.82
2018-02-21T02:22:12.079Z,1018.84
2018-02-21T02:23:22.037Z,1018.81
2018-02-21T02:24:31.738Z,1018.81
2018-02-21T02:25:41.438Z,1018.84
2018-02-21T02:26:51.151Z,1018.79
2018-02-21T02:28:00.861Z,1018.79
2018-02-21T02:29:10.566Z,1018.82
2018-02-21T02:30:20.517Z,1018.8
2018-02-21T02:31:30.471Z,1018.83
2018-02-21T02:32:39.921Z,1018.83
2018-02-21T02:33:49.884Z,1018.81
2018-02-21T02:34:59.845Z,1018.84
2018-02-21T02:36:09.586Z,1018.82
2018-02-21T02:37:19.548Z,1018.91
2018-02-21T02:38:29.253Z,1018.88
2018-02-21T02:39:38.690Z,1018.91
2018-02-21T02:40:48.635Z,1018.92
2018-02-21T02:41:58.346Z,1018.91
2018-02-21T02:43:08.052Z,1018.93
2018-02-21T02:44:17.746Z,1018.95
2018-02-21T02:45:26.673Z,1018.92
2018-02-21T02:46:36.385Z,1018.9
2018-02-21T02:47:46.354Z,1018.88
2018-02-21T02:48:56.049Z,1018.84
2018-02-21T02:50:05.754Z,1018.86
2018-02-21T02:51:15.195Z,1018.85
2018-02-21T02:52:24.632Z,1018.85
2018-02-21T02:53:34.340Z,1018.83
2018-02-21T02:54:44.034Z,1018.84
2018-02-21T02:55:53.466Z,1018.79
2018-02-21T02:57:03.184Z,1018.83
2018-02-21T02:58:12.909Z,1018.84
2018-02-21T02:59:22.608Z,1018.83
2018-02-21T03:00:32.570Z,1018.83
2018-02-21T03:01:42.527Z,1018.81
2018-02-21T03:02:51.962Z,1018.84
2018-02-21T03:04:01.917Z,1018.84
2018-02-21T03:05:11.891Z,1018.84
2018-02-21T03:06:21.602Z,1018.85
2018-02-21T03:07:30.824Z,1018.86
2018-02-21T03:08:40.656Z,1018.88
2018-02-21T03:09:50.355Z,1018.88
2018-02-21T03:11:00.312Z,1018.87
2018-02-21T03:12:09.748Z,1018.87
2018-02-21T03:13:19.190Z,1018.88
2018-02-21T03:14:28.891Z,1018.85
2018-02-21T03:15:38.323Z,1018.86
2018-02-21T03:16:48.293Z,1018.84
2018-02-21T03:17:58.257Z,1018.8
2018-02-21T03:19:07.445Z,1018.8
2018-02-21T03:20:17.398Z,1018.84
2018-02-21T03:21:27.356Z,1018.78
2018-02-21T03:22:36.791Z,1018.83
2018-02-21T03:23:46.548Z,1018.81
2018-02-21T03:24:56.506Z,1018.87
2018-02-21T03:26:06.195Z,1018.84
2018-02-21T03:27:15.891Z,1018.88
2018-02-21T03:28:25.583Z,1018.92
2018-02-21T03:29:35.017Z,1018.96
2018-02-21T03:30:44.977Z,1018.96
2018-02-21T03:31:54.676Z,1018.94
2018-02-21T03:33:04.643Z,1018.95
2018-02-21T03:34:14.075Z,1018.97
2018-02-21T03:35:24.271Z,1018.99
2018-02-21T03:36:34.213Z,1018.93
2018-02-21T03:37:43.905Z,1018.97
2018-02-21T03:38:53.605Z,1018.99
2018-02-21T03:40:03.561Z,1018.94
2018-02-21T03:41:13.255Z,1018.95
2018-02-21T03:42:22.962Z,1018.93
2018-02-21T03:43:32.653Z,1018.88
2018-02-21T03:44:42.600Z,1018.92
2018-02-21T03:45:52.292Z,1018.92
2018-02-21T03:47:01.727Z,1018.91
2018-02-21T03:48:11.668Z,1018.94
2018-02-21T03:49:21.361Z,1018.93
2018-02-21T03:50:31.331Z,1018.93
2018-02-21T03:51:40.767Z,1018.96
2018-02-21T03:52:50.727Z,1018.98
2018-02-21T03:54:00.685Z,1018.98
2018-02-21T03:55:10.639Z,1018.95
2018-02-21T03:56:20.598Z,1018.93
2018-02-21T03:57:30.292Z,1018.9
2018-02-21T03:58:40.231Z,1018.87
2018-02-21T03:59:49.919Z,1018.86
2018-02-21T04:00:59.875Z,1018.85
2018-02-21T04:02:09.832Z,1018.81
2018-02-21T04:03:19.621Z,1018.84
2018-02-21T04:04:29.603Z,1018.82
2018-02-21T04:05:39.297Z,1018.76
2018-02-21T04:06:48.987Z,1018.76
2018-02-21T04:07:58.429Z,1018.72
2018-02-21T04:09:08.120Z,1018.74
2018-02-21T04:10:17.807Z,1018.72
2018-02-21T04:11:27.794Z,1018.71
2018-02-21T04:12:37.486Z,1018.71
2018-02-21T04:13:47.176Z,1018.71
2018-02-21T04:14:57.140Z,1018.74
2018-02-21T04:16:06.834Z,1018.7
2018-02-21T04:17:16.523Z,1018.73
2018-02-21T04:18:26.220Z,1018.75
2018-02-21T04:19:36.194Z,1018.73
2018-02-21T04:20:46.156Z,1018.72
2018-02-21T04:21:56.106Z,1018.7
2018-02-21T04:23:05.548Z,1018.74
2018-02-21T04:24:15.499Z,1018.67
2018-02-21T04:25:25.593Z,1018.71
2018-02-21T04:26:35.029Z,1018.68
2018-02-21T04:27:44.981Z,1018.7
2018-02-21T04:28:54.929Z,1018.68
2018-02-21T04:30:04.620Z,1018.68
2018-02-21T04:31:14.316Z,1018.69
2018-02-21T04:32:23.746Z,1018.7
2018-02-21T04:33:33.447Z,1018.76
2018-02-21T04:34:42.887Z,1018.83
2018-02-21T04:35:52.577Z,1018.81
2018-02-21T04:37:02.527Z,1018.82
2018-02-21T04:38:12.489Z,1018.82
2018-02-21T04:39:22.452Z,1018.83
2018-02-21T04:40:32.145Z,1018.88
2018-02-21T04:41:41.835Z,1018.88
2018-02-21T04:42:51.537Z,1018.86
2018-02-21T04:44:01.229Z,1018.84
2018-02-21T04:45:10.399Z,1018.82
2018-02-21T04:46:20.356Z,1018.84
2018-02-21T04:47:30.296Z,1018.85
2018-02-21T04:48:39.988Z,1018.83
2018-02-21T04:49:49.676Z,1018.79
2018-02-21T04:50:59.634Z,1018.81
2018-02-21T04:52:09.077Z,1018.83
2018-02-21T04:53:19.063Z,1018.85
2018-02-21T04:54:28.751Z,1018.83
2018-02-21T04:55:38.444Z,1018.9
2018-02-21T04:56:47.614Z,1018.88
2018-02-21T04:57:57.288Z,1018.87
2018-02-21T04:59:07.240Z,1018.85
2018-02-21T05:00:17.222Z,1018.89
2018-02-21T05:01:26.670Z,1018.87
2018-02-21T05:02:36.364Z,1018.93
2018-02-21T05:03:46.064Z,1018.92
2018-02-21T05:04:56.010Z,1018.94
2018-02-21T05:06:05.708Z,1018.99
2018-02-21T05:07:15.665Z,1018.97
2018-02-21T05:08:25.107Z,1018.99
2018-02-21T05:09:35.061Z,1019.02
2018-02-21T05:10:45.014Z,1019.03
2018-02-21T05:11:54.973Z,1019.03
2018-02-21T05:13:04.922Z,1019.02
2018-02-21T05:14:14.615Z,1018.95
2018-02-21T05:15:24.310Z,1019.02
2018-02-21T05:16:34.059Z,1019.05
2018-02-21T05:17:43.836Z,1019.05
2018-02-21T05:18:53.782Z,1019.09
2018-02-21T05:20:03.727Z,1019.09
2018-02-21T05:21:13.183Z,1019.05
2018-02-21T05:22:22.886Z,1019.06
2018-02-21T05:23:32.328Z,1019.08
2018-02-21T05:24:41.763Z,1019.18
2018-02-21T05:25:51.718Z,1019.16
2018-02-21T05:27:01.404Z,1019.2
2018-02-21T05:28:11.353Z,1019.22
2018-02-21T05:29:21.309Z,1019.23
2018-02-21T05:30:31.456Z,1019.23
2018-02-21T05:31:41.143Z,1019.23
2018-02-21T05:32:51.103Z,1019.25
2018-02-21T05:34:00.788Z,1019.3
2018-02-21T05:35:10.513Z,1019.28
2018-02-21T05:36:20.208Z,1019.28
2018-02-21T05:37:29.920Z,1019.31
2018-02-21T05:38:39.924Z,1019.32
2018-02-21T05:39:49.364Z,1019.34
2018-02-21T05:40:59.313Z,1019.31
2018-02-21T05:42:09.275Z,1019.37
2018-02-21T05:43:18.703Z,1019.36
2018-02-21T05:44:28.406Z,1019.41
2018-02-21T05:45:38.366Z,1019.38
2018-02-21T05:46:48.320Z,1019.4
2018-02-21T05:47:58.013Z,1019.39
2018-02-21T05:49:07.722Z,1019.44
2018-02-21T05:50:17.676Z,1019.46
2018-02-21T05:51:27.632Z,1019.43
2018-02-21T05:52:37.590Z,1019.49
2018-02-21T05:53:47.548Z,1019.46
2018-02-21T05:54:57.237Z,1019.49
2018-02-21T05:56:06.671Z,1019.47
2018-02-21T05:57:16.098Z,1019.48
2018-02-21T05:58:26.049Z,1019.49
2018-02-21T05:59:35.739Z,1019.52
2018-02-21T06:00:45.689Z,1019.52
2018-02-21T06:01:55.674Z,1019.53
2018-02-21T06:03:05.150Z,1019.58
2018-02-21T06:04:15.103Z,1019.55
2018-02-21T06:05:24.539Z,1019.55
2018-02-21T06:06:34.489Z,1019.63
2018-02-21T06:07:43.929Z,1019.65
2018-02-21T06:08:53.620Z,1019.68
2018-02-21T06:10:03.315Z,1019.68
2018-02-21T06:11:13.329Z,1019.66
2018-02-21T06:12:23.367Z,1019.65
2018-02-21T06:13:33.312Z,1019.61
2018-02-21T06:14:42.759Z,1019.64
2018-02-21T06:15:52.229Z,1019.62
2018-02-21T06:17:02.189Z,1019.66
2018-02-21T06:18:12.138Z,1019.66
2018-02-21T06:19:21.867Z,1019.67
2018-02-21T06:20:32.071Z,1019.67
2018-02-21T06:21:41.777Z,1019.67
2018-02-21T06:22:51.230Z,1019.67
2018-02-21T06:24:01.186Z,1019.6
2018-02-21T06:25:11.143Z,1019.63
2018-02-21T06:26:21.103Z,1019.65
2018-02-21T06:27:30.544Z,1019.66
2018-02-21T06:28:40.491Z,1019.66
2018-02-21T06:29:50.176Z,1019.7
2018-02-21T06:31:00.129Z,1019.63
2018-02-21T06:32:09.884Z,1019.63
2018-02-21T06:33:19.620Z,1019.61
2018-02-21T06:34:29.583Z,1019.57
2018-02-21T06:35:39.335Z,1019.57
2018-02-21T06:36:49.039Z,1019.54
2018-02-21T06:37:58.732Z,1019.57
2018-02-21T06:39:08.436Z,1019.54
2018-02-21T06:40:17.882Z,1019.54
2018-02-21T06:41:27.879Z,1019.53
2018-02-21T06:42:37.595Z,1019.59
2018-02-21T06:43:47.285Z,1019.55
2018-02-21T06:44:57.065Z,1019.55
2018-02-21T06:46:06.510Z,1019.58
2018-02-21T06:47:16.472Z,1019.58
2018-02-21T06:48:26.431Z,1019.6
2018-02-21T06:49:35.893Z,1019.57
2018-02-21T06:50:45.867Z,1019.59
2018-02-21T06:51:55.065Z,1019.62
2018-02-21T06:53:04.772Z,1019.61
2018-02-21T06:54:13.958Z,1019.64
2018-02-21T06:55:23.672Z,1019.65
2018-02-21T06:56:33.109Z,1019.68
2018-02-21T06:57:42.797Z,1019.71
2018-02-21T06:58:52.474Z,1019.73
2018-02-21T07:00:02.427Z,1019.75
2018-02-21T07:01:12.149Z,1019.8
2018-02-21T07:02:21.865Z,1019.81
2018-02-21T07:03:31.293Z,1019.81
2018-02-21T07:04:40.739Z,1019.81
2018-02-21T07:05:50.181Z,1019.8
2018-02-21T07:06:59.632Z,1019.81
2018-02-21T07:08:09.337Z,1019.84
2018-02-21T07:09:19.042Z,1019.86
2018-02-21T07:10:28.732Z,1019.87
2018-02-21T07:11:38.174Z,1019.89
2018-02-21T07:12:47.866Z,1019.88
2018-02-21T07:13:57.558Z,1019.91
2018-02-21T07:15:07.011Z,1019.92
2018-02-21T07:16:16.754Z,1019.93
2018-02-21T07:17:26.716Z,1019.94
2018-02-21T07:18:36.171Z,1019.94
2018-02-21T07:19:45.874Z,1019.94
2018-02-21T07:20:55.320Z,1019.94
2018-02-21T07:22:05.033Z,1019.97
2018-02-21T07:23:15.082Z,1020
2018-02-21T07:24:24.522Z,1020.02
2018-02-21T07:25:34.259Z,1020.02
2018-02-21T07:26:44.238Z,1019.99
2018-02-21T07:27:54.188Z,1020
2018-02-21T07:29:04.149Z,1020.03
2018-02-21T07:30:13.848Z,1020.02
2018-02-21T07:31:23.821Z,1019.99
2018-02-21T07:32:33.515Z,1020.02
2018-02-21T07:33:43.202Z,1020.04
2018-02-21T07:34:52.648Z,1020.02
2018-02-21T07:36:02.622Z,1020.04
2018-02-21T07:37:12.348Z,1020.03
2018-02-21T07:38:22.314Z,1020.08
2018-02-21T07:39:32.016Z,1020.07
2018-02-21T07:40:41.716Z,1020.08
2018-02-21T07:41:51.714Z,1020.1
2018-02-21T07:43:01.681Z,1020.06
2018-02-21T07:44:11.742Z,1020.1
2018-02-21T07:45:21.494Z,1020.12
2018-02-21T07:46:31.468Z,1020.07
2018-02-21T07:47:41.432Z,1020.1
2018-02-21T07:48:51.632Z,1020.08
2018-02-21T07:50:01.677Z,1020.09
2018-02-21T07:51:11.392Z,1020.07
2018-02-21T07:52:21.377Z,1020.11
2018-02-21T07:53:31.085Z,1020.1
2018-02-21T07:54:41.074Z,1020.15
2018-02-21T07:55:50.527Z,1020.21
2018-02-21T07:57:00.496Z,1020.17
2018-02-21T07:58:10.458Z,1020.22
2018-02-21T07:59:19.907Z,1020.2
2018-02-21T08:00:29.452Z,1020.15
2018-02-21T08:01:39.428Z,1020.18
2018-02-21T08:02:49.137Z,1020.2
2018-02-21T08:03:58.624Z,1020.17
2018-02-21T08:05:08.583Z,1020.17
2018-02-21T08:06:18.546Z,1020.18
2018-02-21T08:07:28.237Z,1020.15
2018-02-21T08:08:37.934Z,1020.19
2018-02-21T08:09:47.372Z,1020.19
2018-02-21T08:10:56.554Z,1020.17
2018-02-21T08:12:06.261Z,1020.11
2018-02-21T08:13:15.954Z,1020.09
2018-02-21T08:14:25.645Z,1020.19
2018-02-21T08:15:35.367Z,1020.19
2018-02-21T08:16:44.810Z,1020.13
2018-02-21T08:17:54.520Z,1020.16
2018-02-21T08:19:03.727Z,1020.25
2018-02-21T08:20:13.707Z,1020.23
2018-02-21T08:21:23.240Z,1020.25
2018-02-21T08:22:32.941Z,1020.27
2018-02-21T08:23:42.927Z,1020.27
2018-02-21T08:24:52.904Z,1020.27
2018-02-21T08:26:02.123Z,1020.29
2018-02-21T08:27:12.108Z,1020.28
2018-02-21T08:28:21.838Z,1020.32
2018-02-21T08:29:31.581Z,1020.29
2018-02-21T08:30:41.540Z,1020.31
2018-02-21T08:31:51.497Z,1020.3
2018-02-21T08:33:01.468Z,1020.33
2018-02-21T08:34:11.192Z,1020.32
2018-02-21T08:35:20.651Z,1020.32
2018-02-21T08:36:30.361Z,1020.33
2018-02-21T08:37:40.168Z,1020.34
2018-02-21T08:38:49.868Z,1020.34
2018-02-21T08:39:59.841Z,1020.35
2018-02-21T08:41:09.816Z,1020.31
2018-02-21T08:42:19.275Z,1020.28
2018-02-21T08:43:28.758Z,1020.3
2018-02-21T08:44:38.728Z,1020.29
2018-02-21T08:45:48.699Z,1020.32
2018-02-21T08:46:58.455Z,1020.34
2018-02-21T08:48:08.434Z,1020.39
2018-02-21T08:49:18.396Z,1020.41
2018-02-21T08:50:28.096Z,1020.42
2018-02-21T08:51:38.071Z,1020.4
2018-02-21T08:52:47.266Z,1020.43
2018-02-21T08:53:56.977Z,1020.41
2018-02-21T08:55:06.705Z,1020.45
2018-02-21T08:56:16.672Z,1020.5
2018-02-21T08:57:26.652Z,1020.48
2018-02-21T08:58:36.647Z,1020.5
2018-02-21T08:59:46.356Z,1020.48
2018-02-21T09:00:55.809Z,1020.49
2018-02-21T09:02:05.547Z,1020.49
2018-02-21T09:03:15.000Z,1020.5
2018-02-21T09:04:24.723Z,1020.48
2018-02-21T09:05:34.175Z,1020.49
2018-02-21T09:06:43.890Z,1020.55
2018-02-21T09:07:53.353Z,1020.53
2018-02-21T09:09:02.851Z,1020.52
2018-02-21T09:10:12.854Z,1020.56
2018-02-21T09:11:22.315Z,1020.59
2018-02-21T09:12:32.277Z,1020.58
2018-02-21T09:13:42.255Z,1020.54
2018-02-21T09:14:51.971Z,1020.52
2018-02-21T09:16:01.685Z,1020.55
2018-02-21T09:17:11.147Z,1020.51
2018-02-21T09:18:20.863Z,1020.48
2018-02-21T09:19:30.578Z,1020.5
2018-02-21T09:20:40.292Z,1020.5
2018-02-21T09:21:49.820Z,1020.46
2018-02-21T09:22:59.920Z,1020.46
2018-02-21T09:24:09.945Z,1020.47
2018-02-21T09:25:19.915Z,1020.41
2018-02-21T09:26:29.919Z,1020.43
2018-02-21T09:27:39.638Z,1020.4
2018-02-21T09:28:49.601Z,1020.4
2018-02-21T09:29:59.318Z,1020.38
2018-02-21T09:31:09.289Z,1020.35
2018-02-21T09:32:19.515Z,1020.28
2018-02-21T09:33:29.725Z,1020.34
2018-02-21T09:34:39.684Z,1020.32
2018-02-21T09:35:49.399Z,1020.32
2018-02-21T09:36:59.111Z,1020.33
2018-02-21T09:38:08.943Z,1020.31
2018-02-21T09:39:18.385Z,1020.4
2018-02-21T09:40:28.105Z,1020.41
2018-02-21T09:41:38.070Z,1020.35
2018-02-21T09:42:47.536Z,1020.28
2018-02-21T09:43:57.504Z,1020.34
2018-02-21T09:45:06.963Z,1020.34
2018-02-21T09:46:16.430Z,1020.38
2018-02-21T09:47:26.151Z,1020.38
2018-02-21T09:48:35.599Z,1020.37
2018-02-21T09:49:45.313Z,1020.38
2018-02-21T09:50:54.775Z,1020.42
2018-02-21T09:52:04.771Z,1020.37
2018-02-21T09:53:14.226Z,1020.36
2018-02-21T09:54:24.200Z,1020.36
2018-02-21T09:55:34.261Z,1020.33
2018-02-21T09:56:43.961Z,1020.34
2018-02-21T09:57:53.416Z,1020.35
2018-02-21T09:59:03.401Z,1020.24
2018-02-21T10:00:13.389Z,1020.28
2018-02-21T10:01:23.154Z,1020.31
2018-02-21T10:02:32.885Z,1020.29
2018-02-21T10:03:42.654Z,1020.32
2018-02-21T10:04:52.363Z,1020.36
2018-02-21T10:06:02.337Z,1020.31
2018-02-21T10:07:12.368Z,1020.3
2018-02-21T10:08:22.349Z,1020.35
2018-02-21T10:09:32.064Z,1020.31
2018-02-21T10:10:42.031Z,1020.36
2018-02-21T10:11:52.011Z,1020.32
2018-02-21T10:13:01.977Z,1020.31
2018-02-21T10:14:11.966Z,1020.31
2018-02-21T10:15:21.680Z,1020.33
2018-02-21T10:16:31.402Z,1020.31
2018-02-21T10:17:41.384Z,1020.28
2018-02-21T10:18:51.190Z,1020.29
2018-02-21T10:20:00.913Z,1020.29
2018-02-21T10:21:10.894Z,1020.29
2018-02-21T10:22:20.604Z,1020.27
2018-02-21T10:23:30.583Z,1020.27
2018-02-21T10:24:40.570Z,1020.25
2018-02-21T10:25:50.027Z,1020.28
2018-02-21T10:27:00.014Z,1020.24
2018-02-21T10:28:09.998Z,1020.21
2018-02-21T10:29:19.984Z,1020.26
2018-02-21T10:30:29.735Z,1020.26
2018-02-21T10:31:39.465Z,1020.31
2018-02-21T10:32:49.491Z,1020.27
2018-02-21T10:33:58.950Z,1020.25
2018-02-21T10:35:08.424Z,1020.17
2018-02-21T10:36:17.865Z,1020.24
2018-02-21T10:37:27.832Z,1020.23
2018-02-21T10:38:37.562Z,1020.22
2018-02-21T10:39:47.552Z,1020.22
2018-02-21T10:40:57.528Z,1020.18
2018-02-21T10:42:06.713Z,1020.22
2018-02-21T10:43:16.444Z,1020.19
2018-02-21T10:44:26.202Z,1020.19
2018-02-21T10:45:35.676Z,1020.17
2018-02-21T10:46:45.196Z,1020.14
2018-02-21T10:47:55.186Z,1020.16
2018-02-21T10:49:05.214Z,1020.21
2018-02-21T10:50:14.676Z,1020.16
2018-02-21T10:51:24.682Z,1020.12
2018-02-21T10:52:34.141Z,1020.08
2018-02-21T10:53:44.147Z,1020.1
2018-02-21T10:54:53.883Z,1020.08
2018-02-21T10:56:03.324Z,1020.13
2018-02-21T10:57:13.309Z,1020.08
2018-02-21T10:58:23.312Z,1020.09
2018-02-21T10:59:33.102Z,1020.09
2018-02-21T11:00:43.202Z,1020.1
2018-02-21T11:01:52.949Z,1020.06
2018-02-21T11:03:02.412Z,1020.04
2018-02-21T11:04:12.391Z,1020.13
2018-02-21T11:05:22.122Z,1020.08
2018-02-21T11:06:31.591Z,1020.1
2018-02-21T11:07:41.581Z,1020.08
2018-02-21T11:08:51.337Z,1020.13
2018-02-21T11:10:01.058Z,1020.1
2018-02-21T11:11:10.003Z,1020.11
2018-02-21T11:12:20.005Z,1020.14
2018-02-21T11:13:29.724Z,1020.07
2018-02-21T11:14:39.500Z,1020.11
2018-02-21T11:15:49.215Z,1020.16
2018-02-21T11:16:59.215Z,1020.11
2018-02-21T11:18:08.425Z,1020.09
2018-02-21T11:19:18.401Z,1020.16
2018-02-21T11:20:28.367Z,1020.15
2018-02-21T11:21:38.348Z,1020.14
2018-02-21T11:22:48.335Z,1020.13
2018-02-21T11:23:58.377Z,1020.21
2018-02-21T11:25:08.375Z,1020.14
2018-02-21T11:26:18.349Z,1020.14
2018-02-21T11:27:28.321Z,1020.1
2018-02-21T11:28:37.772Z,1020.21
2018-02-21T11:29:47.745Z,1020.05
2018-02-21T11:30:57.724Z,1020.11
2018-02-21T11:32:07.470Z,1020.08
2018-02-21T11:33:17.448Z,1020.1
2018-02-21T11:34:26.904Z,1020.11
2018-02-21T11:35:36.626Z,1020.18
2018-02-21T11:36:46.602Z,1020.21
2018-02-21T11:37:56.637Z,1020.1
2018-02-21T11:39:06.707Z,1020.14
2018-02-21T11:40:16.710Z,1020.17
2018-02-21T11:41:26.427Z,1020.15
2018-02-21T11:42:36.409Z,1020.17
2018-02-21T11:43:46.162Z,1020.15
2018-02-21T11:44:56.129Z,1020.18
2018-02-21T11:46:05.878Z,1020.15
2018-02-21T11:47:15.949Z,1020.17
2018-02-21T11:48:25.661Z,1020.18
2018-02-21T11:49:35.388Z,1020.2
2018-02-21T11:50:45.141Z,1020.19
2018-02-21T11:51:55.144Z,1020.18
2018-02-21T11:53:05.137Z,1020.16
2018-02-21T11:54:15.215Z,1020.22
2018-02-21T11:55:24.931Z,1020.19
2018-02-21T11:56:34.920Z,1020.17
2018-02-21T11:57:44.890Z,1020.18
2018-02-21T11:58:54.856Z,1020.14
2018-02-21T12:00:04.610Z,1020.15
2018-02-21T12:01:14.321Z,1020.14
2018-02-21T12:02:24.312Z,1020.17
2018-02-21T12:03:34.060Z,1020.16
2018-02-21T12:04:43.861Z,1020.19
2018-02-21T12:05:54.130Z,1020.13
2018-02-21T12:07:04.212Z,1020.19
2018-02-21T12:08:13.940Z,1020.17
2018-02-21T12:09:23.653Z,1020.23
2018-02-21T12:10:33.122Z,1020.19
2018-02-21T12:11:42.866Z,1020.23
2018-02-21T12:12:52.604Z,1020.27
2018-02-21T12:14:02.628Z,1020.18
2018-02-21T12:15:12.639Z,1020.21
2018-02-21T12:16:22.617Z,1020.16
2018-02-21T12:17:32.542Z,1020.18
2018-02-21T12:18:42.094Z,1020.18
2018-02-21T12:19:52.067Z,1020.2
2018-02-21T12:21:01.521Z,1020.19
2018-02-21T12:22:11.496Z,1020.19
2018-02-21T12:23:21.479Z,1020.11
2018-02-21T12:24:31.200Z,1020.17
2018-02-21T12:25:40.684Z,1020.14
2018-02-21T12:26:50.159Z,1020.18
2018-02-21T12:27:59.611Z,1020.15
2018-02-21T12:29:09.589Z,1020.18
2018-02-21T12:30:19.317Z,1020.18
2018-02-21T12:31:29.312Z,1020.21
2018-02-21T12:32:39.289Z,1020.12
2018-02-21T12:33:49.267Z,1020.16
2018-02-21T12:34:59.253Z,1020.12
2018-02-21T12:36:09.255Z,1020.15
2018-02-21T12:37:19.233Z,1020.11
2018-02-21T12:38:28.705Z,1020.12
2018-02-21T12:39:38.689Z,1020.16
2018-02-21T12:40:48.407Z,1020.16
2018-02-21T12:41:58.140Z,1020.18
2018-02-21T12:43:08.119Z,1020.1
2018-02-21T12:44:17.831Z,1020.04
2018-02-21T12:45:27.815Z,1020.14
2018-02-21T12:46:37.274Z,1020.15
2018-02-21T12:47:46.997Z,1020.07
2018-02-21T12:48:56.967Z,1020.03
2018-02-21T12:50:06.994Z,1020.09
2018-02-21T12:51:16.905Z,1020.11
2018-02-21T12:52:26.621Z,1020.14
2018-02-21T12:53:36.387Z,1020.1
2018-02-21T12:54:45.574Z,1020.11
2018-02-21T12:55:55.037Z,1020.07
2018-02-21T12:57:04.748Z,1020.05
2018-02-21T12:58:14.218Z,1020.1
2018-02-21T12:59:23.950Z,1020.05
2018-02-21T13:00:33.933Z,1020.11
2018-02-21T13:01:43.920Z,1020.08
2018-02-21T13:02:53.649Z,1020.09
2018-02-21T13:04:03.652Z,1020.12
2018-02-21T13:05:13.364Z,1020.08
2018-02-21T13:06:22.809Z,1020.08
2018-02-21T13:07:32.265Z,1020.05
2018-02-21T13:08:41.774Z,1020.08
2018-02-21T13:09:51.750Z,1019.99
2018-02-21T13:11:01.219Z,1020
2018-02-21T13:12:10.950Z,1020
2018-02-21T13:13:20.667Z,1020
2018-02-21T13:14:30.389Z,1019.97
2018-02-21T13:15:40.101Z,1019.98
2018-02-21T13:16:50.082Z,1019.94
2018-02-21T13:17:59.784Z,1019.96
2018-02-21T13:19:09.493Z,1020
2018-02-21T13:20:19.519Z,1019.94
2018-02-21T13:21:29.493Z,1019.91
2018-02-21T13:22:39.488Z,1019.94
2018-02-21T13:23:49.208Z,1019.86
2018-02-21T13:24:58.917Z,1019.92
2018-02-21T13:26:08.667Z,1019.97
2018-02-21T13:27:18.649Z,1019.9
2018-02-21T13:28:28.659Z,1019.86
2018-02-21T13:29:37.851Z,1019.8
2018-02-21T13:30:47.048Z,1019.82
2018-02-21T13:31:57.032Z,1019.78
2018-02-21T13:33:06.494Z,1019.74
2018-02-21T13:34:16.201Z,1019.75
2018-02-21T13:35:25.923Z,1019.73
2018-02-21T13:36:35.644Z,1019.78
2018-02-21T13:37:45.403Z,1019.75
2018-02-21T13:38:55.127Z,1019.72
2018-02-21T13:40:05.111Z,1019.75
2018-02-21T13:41:15.096Z,1019.72
2018-02-21T13:42:24.807Z,1019.73
2018-02-21T13:43:34.548Z,1019.71
2018-02-21T13:44:44.271Z,1019.76
2018-02-21T13:45:53.735Z,1019.73
2018-02-21T13:47:03.442Z,1019.72
2018-02-21T13:48:13.162Z,1019.69
2018-02-21T13:49:23.135Z,1019.66
2018-02-21T13:50:32.645Z,1019.68
2018-02-21T13:51:42.096Z,1019.77
2018-02-21T13:52:51.846Z,1019.72
2018-02-21T13:54:01.561Z,1019.69
2018-02-21T13:55:11.285Z,1019.76
2018-02-21T13:56:21.333Z,1019.71
2018-02-21T13:57:31.036Z,1019.66
2018-02-21T13:58:40.758Z,1019.7
2018-02-21T13:59:50.477Z,1019.61
2018-02-21T14:01:00.192Z,1019.67
2018-02-21T14:02:10.191Z,1019.67
2018-02-21T14:03:19.917Z,1019.66
2018-02-21T14:04:29.660Z,1019.66
2018-02-21T14:05:39.377Z,1019.68
2018-02-21T14:06:49.100Z,1019.69